This is the latest recevied weather packets stored in our database for station/object IZ1GCT. If no packets are shown the sender has not sent any weather packets the latest 1 day(s).
| Time | Temp. | Humidity | Pressure | Rain* | Wind** | Luminosity | Snow |
|---|---|---|---|---|---|---|---|
| 1777990249 | 15.56° C | 70% | 1015.5 hPa | 0 mm | 0.45 m/s, 141° | - | - |
| 1777989948 | 15.56° C | 69% | 1015.6 hPa | 0 mm | 0.45 m/s, 158° | - | - |
| 1777989648 | 15.56° C | 70% | 1015.7 hPa | 0 mm | 0 m/s | - | - |
| 1777989349 | 15.56° C | 70% | 1015.6 hPa | 0 mm | 0 m/s | - | - |
| 1777989049 | 15° C | 70% | 1015.7 hPa | 0 mm | 0 m/s | - | - |
| 1777988748 | 15° C | 70% | 1015.8 hPa | 0 mm | 0.45 m/s, 137° | - | - |
| 1777988449 | 15° C | 71% | 1015.7 hPa | 0 mm | 0 m/s | - | - |
| 1777988148 | 15° C | 70% | 1015.7 hPa | 0 mm | 0 m/s | - | - |
| 1777987848 | 15° C | 70% | 1015.9 hPa | 0 mm | 0.45 m/s, 158° | - | - |
| 1777987549 | 15° C | 69% | 1015.9 hPa | 0 mm | 0.45 m/s, 135° | - | - |
| 1777987248 | 15° C | 70% | 1015.9 hPa | 0 mm | 0.45 m/s, 135° | - | - |
| 1777986949 | 14.44° C | 69% | 1015.9 hPa | 0 mm | 0 m/s | - | - |
| 1777986648 | 14.44° C | 70% | 1015.9 hPa | 0 mm | 0.45 m/s, 135° | - | - |
| 1777986348 | 14.44° C | 71% | 1015.9 hPa | 0 mm | 0.89 m/s, 135° | - | - |
| 1777986049 | 14.44° C | 72% | 1015.9 hPa | 0.25 mm | 0.45 m/s, 135° | - | - |
| 1777985748 | 13.89° C | 73% | 1015.9 hPa | 0.25 mm | 0.45 m/s, 158° | - | - |
| 1777985448 | 13.89° C | 73% | 1015.9 hPa | 0.25 mm | 0.89 m/s, 135° | - | - |
| 1777985149 | 13.89° C | 73% | 1016 hPa | 0.25 mm | 1.34 m/s, 135° | - | - |
| 1777984848 | 13.89° C | 73% | 1016 hPa | 0.25 mm | 0.45 m/s, 150° | - | - |
| 1777984548 | 13.33° C | 72% | 1016 hPa | 0.25 mm | 1.34 m/s, 121° | - | - |
| 1777984247 | 13.89° C | 71% | 1016 hPa | 0.25 mm | 0.89 m/s, 124° | - | - |
| 1777983949 | 13.89° C | 72% | 1016 hPa | 0.25 mm | 0.89 m/s, 129° | - | - |
| 1777983648 | 13.89° C | 72% | 1016.1 hPa | 0.25 mm | 0 m/s | - | - |
| 1777983348 | 13.89° C | 73% | 1016.1 hPa | 0.25 mm | 0.45 m/s, 158° | - | - |
| 1777983047 | 13.89° C | 73% | 1016.1 hPa | 0.25 mm | 0.89 m/s, 135° | - | - |
* Rain latest hour (hover to see other rain measurements)
** Current wind speed in m/s (hover to see current wind gust speed)